createdAt,value
2019-03-05T00:01:42.000Z,98836
2019-03-05T00:02:42.000Z,98832
2019-03-05T00:04:27.000Z,98841
2019-03-05T00:05:42.000Z,98836
2019-03-05T00:07:41.000Z,98834
2019-03-05T00:08:41.000Z,98837
2019-03-05T00:10:41.000Z,98841
2019-03-05T00:12:41.000Z,98838
2019-03-05T00:14:41.000Z,98841
2019-03-05T00:15:41.000Z,98839
2019-03-05T00:17:41.000Z,98836
2019-03-05T00:19:41.000Z,98844
2019-03-05T00:21:41.000Z,98841
2019-03-05T00:22:41.000Z,98846
2019-03-05T00:23:41.000Z,98848
2019-03-05T00:25:41.000Z,98852
2019-03-05T00:27:41.000Z,98850
2019-03-05T00:28:41.000Z,98844
2019-03-05T00:29:41.000Z,98851
2019-03-05T00:31:41.000Z,98853
2019-03-05T00:33:41.000Z,98866
2019-03-05T00:35:26.000Z,98863
2019-03-05T00:36:41.000Z,98869
2019-03-05T00:38:41.000Z,98862
2019-03-05T00:40:41.000Z,98860
2019-03-05T00:41:41.000Z,98860
2019-03-05T00:43:41.000Z,98883
2019-03-05T00:44:41.000Z,98878
2019-03-05T00:46:41.000Z,98881
2019-03-05T00:48:41.000Z,98869
2019-03-05T00:49:41.000Z,98875
2019-03-05T00:51:41.000Z,98875
2019-03-05T00:52:41.000Z,98874
2019-03-05T00:54:41.000Z,98875
2019-03-05T00:56:41.000Z,98872
2019-03-05T00:57:41.000Z,98873
2019-03-05T00:59:41.000Z,98880
2019-03-05T01:01:41.000Z,98886
2019-03-05T01:03:26.000Z,98873
2019-03-05T01:04:41.000Z,98896
2019-03-05T01:06:41.000Z,98887
2019-03-05T01:08:41.000Z,98884
2019-03-05T01:10:41.000Z,98880
2019-03-05T01:12:41.000Z,98876
2019-03-05T01:14:41.000Z,98886
2019-03-05T01:16:41.000Z,98890
2019-03-05T01:18:41.000Z,98886
2019-03-05T01:20:41.000Z,98886
2019-03-05T01:22:26.000Z,98890
2019-03-05T01:23:41.000Z,98894
2019-03-05T01:25:41.000Z,98896
2019-03-05T01:27:41.000Z,98898
2019-03-05T01:28:41.000Z,98894
2019-03-05T01:30:41.000Z,98887
2019-03-05T01:31:41.000Z,98894
2019-03-05T01:32:41.000Z,98889
2019-03-05T01:34:41.000Z,98898
2019-03-05T01:36:41.000Z,98902
2019-03-05T01:37:41.000Z,98894
2019-03-05T01:39:41.000Z,98899
2019-03-05T01:40:41.000Z,98895
2019-03-05T01:42:41.000Z,98898
2019-03-05T01:43:41.000Z,98897
2019-03-05T01:45:41.000Z,98901
2019-03-05T01:46:41.000Z,98902
2019-03-05T01:48:41.000Z,98906
2019-03-05T01:49:41.000Z,98888
2019-03-05T01:51:26.000Z,98900
2019-03-05T01:52:41.000Z,98894
2019-03-05T01:54:41.000Z,98910
2019-03-05T01:55:41.000Z,98898
2019-03-05T01:57:41.000Z,98894
2019-03-05T01:59:41.000Z,98895
2019-03-05T02:01:26.000Z,98898
2019-03-05T02:02:41.000Z,98894
2019-03-05T02:04:41.000Z,98901
2019-03-05T02:06:41.000Z,98901
2019-03-05T02:08:26.000Z,98905
2019-03-05T02:09:41.000Z,98910
2019-03-05T02:11:41.000Z,98904
2019-03-05T02:12:41.000Z,98912
2019-03-05T02:14:41.000Z,98910
2019-03-05T02:16:41.000Z,98913
2019-03-05T02:18:41.000Z,98916
2019-03-05T02:20:41.000Z,98917
2019-03-05T02:22:41.000Z,98912
2019-03-05T02:24:41.000Z,98915
2019-03-05T02:26:26.000Z,98910
2019-03-05T02:27:41.000Z,98914
2019-03-05T02:29:41.000Z,98912
2019-03-05T02:30:41.000Z,98915
2019-03-05T02:32:41.000Z,98908
2019-03-05T02:34:26.000Z,98915
2019-03-05T02:35:41.000Z,98922
2019-03-05T02:37:41.000Z,98918
2019-03-05T02:39:41.000Z,98919
2019-03-05T02:41:41.000Z,98920
2019-03-05T02:43:41.000Z,98920
2019-03-05T02:45:26.000Z,98918
2019-03-05T02:47:26.000Z,98919
2019-03-05T02:48:41.000Z,98917
2019-03-05T02:50:41.000Z,98910
2019-03-05T02:51:41.000Z,98922
2019-03-05T02:53:26.000Z,98921
2019-03-05T02:54:41.000Z,98916
2019-03-05T02:56:41.000Z,98919
2019-03-05T02:58:41.000Z,98925
2019-03-05T03:00:41.000Z,98918
2019-03-05T03:01:41.000Z,98919
2019-03-05T03:03:41.000Z,98917
2019-03-05T03:05:41.000Z,98926
2019-03-05T03:07:41.000Z,98924
2019-03-05T03:09:41.000Z,98919
2019-03-05T03:10:41.000Z,98938
2019-03-05T03:11:41.000Z,98930
2019-03-05T03:13:41.000Z,98927
2019-03-05T03:14:41.000Z,98934
2019-03-05T03:16:41.000Z,98925
2019-03-05T03:18:42.000Z,98934
2019-03-05T03:20:41.000Z,98930
2019-03-05T03:22:41.000Z,98929
2019-03-05T03:24:26.000Z,98933
2019-03-05T03:25:41.000Z,98931
2019-03-05T03:26:41.000Z,98935
2019-03-05T03:28:26.000Z,98929
2019-03-05T03:29:41.000Z,98932
2019-03-05T03:31:42.000Z,98932
2019-03-05T03:33:41.000Z,98935
2019-03-05T03:35:26.000Z,98935
2019-03-05T03:36:41.000Z,98936
2019-03-05T03:38:41.000Z,98925
2019-03-05T03:39:41.000Z,98941
2019-03-05T03:41:41.000Z,98939
2019-03-05T03:42:41.000Z,98943
2019-03-05T03:43:41.000Z,98938
2019-03-05T03:45:41.000Z,98939
2019-03-05T03:46:42.000Z,98943
2019-03-05T03:48:41.000Z,98939
2019-03-05T03:49:41.000Z,98939
2019-03-05T03:51:41.000Z,98941
2019-03-05T03:52:42.000Z,98934
2019-03-05T03:54:41.000Z,98945
2019-03-05T03:55:41.000Z,98940
2019-03-05T03:57:41.000Z,98952
2019-03-05T03:58:41.000Z,98940
2019-03-05T04:00:42.000Z,98951
2019-03-05T04:02:41.000Z,98943
2019-03-05T04:04:41.000Z,98953
2019-03-05T04:06:41.000Z,98955
2019-03-05T04:08:42.000Z,98955
2019-03-05T04:10:41.000Z,98948
2019-03-05T04:12:26.000Z,98943
2019-03-05T04:13:41.000Z,98950
2019-03-05T04:15:42.000Z,98954
2019-03-05T04:17:26.000Z,98953
2019-03-05T04:18:41.000Z,98963
2019-03-05T04:20:41.000Z,98962
2019-03-05T04:21:41.000Z,98959
2019-03-05T04:22:41.000Z,98960
2019-03-05T04:24:26.000Z,98953
2019-03-05T04:26:41.000Z,98956
2019-03-05T04:28:41.000Z,98960
2019-03-05T04:30:41.000Z,98956
2019-03-05T04:32:41.000Z,98952
2019-03-05T04:33:41.000Z,98959
2019-03-05T04:35:26.000Z,98945
2019-03-05T04:37:41.000Z,98971
2019-03-05T04:39:41.000Z,98967
2019-03-05T04:41:41.000Z,98969
2019-03-05T04:43:41.000Z,98967
2019-03-05T04:45:26.000Z,98968
2019-03-05T04:46:41.000Z,98967
2019-03-05T04:47:41.000Z,98959
2019-03-05T04:49:41.000Z,98962
2019-03-05T04:50:41.000Z,98965
2019-03-05T04:52:41.000Z,98969
2019-03-05T04:54:41.000Z,98962
2019-03-05T04:56:26.000Z,98964
2019-03-05T04:57:41.000Z,98958
2019-03-05T04:59:41.000Z,98953
2019-03-05T05:01:26.000Z,98951
2019-03-05T05:02:41.000Z,98960
2019-03-05T05:03:41.000Z,98956
2019-03-05T05:04:41.000Z,98958
2019-03-05T05:05:41.000Z,98967
2019-03-05T05:07:26.000Z,98962
2019-03-05T05:08:41.000Z,98967
2019-03-05T05:10:41.000Z,98969
2019-03-05T05:11:41.000Z,98965
2019-03-05T05:13:41.000Z,98980
2019-03-05T05:15:41.000Z,98980
2019-03-05T05:16:41.000Z,98983
2019-03-05T05:18:41.000Z,98979
2019-03-05T05:20:41.000Z,98981
2019-03-05T05:22:41.000Z,98979
2019-03-05T05:23:41.000Z,98974
2019-03-05T05:25:27.000Z,98978
2019-03-05T05:26:42.000Z,98983
2019-03-05T05:27:42.000Z,98973
2019-03-05T05:29:42.000Z,98971
2019-03-05T05:31:42.000Z,98971
2019-03-05T05:32:42.000Z,98962
2019-03-05T05:34:27.000Z,98973
2019-03-05T05:35:42.000Z,98972
2019-03-05T05:37:42.000Z,98968
2019-03-05T05:38:42.000Z,98973
2019-03-05T05:40:42.000Z,98977
2019-03-05T05:42:42.000Z,98980
2019-03-05T05:43:42.000Z,98976
2019-03-05T05:45:42.000Z,98976
2019-03-05T05:46:42.000Z,98984
2019-03-05T05:48:42.000Z,98993
2019-03-05T05:49:42.000Z,98979
2019-03-05T05:51:11.000Z,98975
2019-03-05T05:52:42.000Z,98985
2019-03-05T05:54:42.000Z,98976
2019-03-05T05:56:42.000Z,98977
2019-03-05T05:57:42.000Z,98973
2019-03-05T05:58:42.000Z,98973
2019-03-05T06:00:27.000Z,98974
2019-03-05T06:01:42.000Z,98978
2019-03-05T06:03:27.000Z,98980
2019-03-05T06:04:42.000Z,98978
2019-03-05T06:05:42.000Z,98978
2019-03-05T06:07:27.000Z,98975
2019-03-05T06:08:42.000Z,98983
2019-03-05T06:10:42.000Z,98980
2019-03-05T06:12:42.000Z,98980
2019-03-05T06:13:42.000Z,98978
2019-03-05T06:15:42.000Z,98976
2019-03-05T06:17:27.000Z,98982
2019-03-05T06:18:42.000Z,98982
2019-03-05T06:20:42.000Z,98981
2019-03-05T06:22:42.000Z,98992
2019-03-05T06:24:42.000Z,98989
2019-03-05T06:25:42.000Z,98993
2019-03-05T06:27:27.000Z,99000
2019-03-05T06:28:41.000Z,98987
2019-03-05T06:30:41.000Z,98991
2019-03-05T06:31:41.000Z,98983
2019-03-05T06:33:41.000Z,98999
2019-03-05T06:35:41.000Z,98991
2019-03-05T06:37:41.000Z,99006
2019-03-05T06:39:41.000Z,99001
2019-03-05T06:41:41.000Z,99000
2019-03-05T06:42:41.000Z,99001
2019-03-05T06:44:26.000Z,99003
2019-03-05T06:45:41.000Z,99005
2019-03-05T06:47:41.000Z,99001
2019-03-05T06:48:41.000Z,99008
2019-03-05T06:50:26.000Z,99005
2019-03-05T06:51:41.000Z,99001
2019-03-05T06:53:41.000Z,99012
2019-03-05T06:54:41.000Z,99002
2019-03-05T06:55:41.000Z,99008
2019-03-05T06:57:41.000Z,99010
2019-03-05T06:58:41.000Z,99013
2019-03-05T07:00:41.000Z,99014
2019-03-05T07:01:41.000Z,99025
2019-03-05T07:02:41.000Z,99018
2019-03-05T07:04:41.000Z,99020
2019-03-05T07:06:41.000Z,99028
2019-03-05T07:07:41.000Z,99029
2019-03-05T07:09:26.000Z,99025
2019-03-05T07:10:41.000Z,99033
2019-03-05T07:12:41.000Z,99024
2019-03-05T07:14:41.000Z,99032
2019-03-05T07:15:41.000Z,99043
2019-03-05T07:16:41.000Z,99034
2019-03-05T07:18:26.000Z,99032
2019-03-05T07:19:41.000Z,99034
2019-03-05T07:21:41.000Z,99048
2019-03-05T07:23:41.000Z,99051
2019-03-05T07:25:41.000Z,99043
2019-03-05T07:27:41.000Z,99041
2019-03-05T07:29:26.000Z,99036
2019-03-05T07:30:41.000Z,99049
2019-03-05T07:32:41.000Z,99051
2019-03-05T07:34:41.000Z,99052
2019-03-05T07:35:41.000Z,99047
2019-03-05T07:37:41.000Z,99047
2019-03-05T07:39:41.000Z,99053
2019-03-05T07:41:41.000Z,99063
2019-03-05T07:43:26.000Z,99064
2019-03-05T07:44:41.000Z,99059
2019-03-05T07:45:41.000Z,99065
2019-03-05T07:47:41.000Z,99082
2019-03-05T07:49:26.000Z,99067
2019-03-05T07:50:41.000Z,99073
2019-03-05T07:52:41.000Z,99084
2019-03-05T07:54:41.000Z,99090
2019-03-05T07:56:41.000Z,99085
2019-03-05T07:57:41.000Z,99095
2019-03-05T07:58:41.000Z,99087
2019-03-05T08:00:41.000Z,99085
2019-03-05T08:02:26.000Z,99109
2019-03-05T08:03:41.000Z,99118
2019-03-05T08:05:41.000Z,99102
2019-03-05T08:07:41.000Z,99095
2019-03-05T08:09:41.000Z,99097
2019-03-05T08:11:41.000Z,99100
2019-03-05T08:12:41.000Z,99099
2019-03-05T08:14:41.000Z,99098
2019-03-05T08:16:41.000Z,99105
2019-03-05T08:17:41.000Z,99116
2019-03-05T08:19:41.000Z,99116
2019-03-05T08:21:41.000Z,99105
2019-03-05T08:22:41.000Z,99114
2019-03-05T08:24:41.000Z,99116
2019-03-05T08:25:41.000Z,99120
2019-03-05T08:26:41.000Z,99114
2019-03-05T08:28:26.000Z,99114
2019-03-05T08:29:41.000Z,99122
2019-03-05T08:31:41.000Z,99136
2019-03-05T08:32:41.000Z,99123
2019-03-05T08:34:41.000Z,99124
2019-03-05T08:36:42.000Z,99133
2019-03-05T08:38:42.000Z,99122
2019-03-05T08:39:42.000Z,99127
2019-03-05T08:40:42.000Z,99130
2019-03-05T08:42:42.000Z,99133
2019-03-05T08:44:42.000Z,99135
2019-03-05T08:46:42.000Z,99130
2019-03-05T08:48:42.000Z,99133
2019-03-05T08:49:42.000Z,99140
2019-03-05T08:51:42.000Z,99160
2019-03-05T08:53:42.000Z,99138
2019-03-05T08:55:42.000Z,99139
2019-03-05T08:57:42.000Z,99145
2019-03-05T08:59:42.000Z,99137
2019-03-05T09:01:42.000Z,99148
2019-03-05T09:03:26.000Z,99151
2019-03-05T09:04:42.000Z,99151
2019-03-05T09:06:42.000Z,99164
2019-03-05T09:08:42.000Z,99157
2019-03-05T09:09:42.000Z,99154
2019-03-05T09:11:42.000Z,99156
2019-03-05T09:13:27.000Z,99154
2019-03-05T09:15:42.000Z,99158
2019-03-05T09:17:26.000Z,99163
2019-03-05T09:18:26.000Z,99163
2019-03-05T09:19:42.000Z,99165
2019-03-05T09:20:42.000Z,99162
2019-03-05T09:22:42.000Z,99174
2019-03-05T09:24:26.000Z,99168
2019-03-05T09:25:42.000Z,99167
2019-03-05T09:27:42.000Z,99165
2019-03-05T09:29:27.000Z,99167
2019-03-05T09:31:42.000Z,99178
2019-03-05T09:32:42.000Z,99169
2019-03-05T09:33:42.000Z,99167
2019-03-05T09:34:42.000Z,99167
2019-03-05T09:35:42.000Z,99173
2019-03-05T09:37:26.000Z,99180
2019-03-05T09:38:42.000Z,99184
2019-03-05T09:40:41.000Z,99177
2019-03-05T09:41:41.000Z,99184
2019-03-05T09:43:41.000Z,99182
2019-03-05T09:45:26.000Z,99180
2019-03-05T09:47:41.000Z,99180
2019-03-05T09:49:41.000Z,99180
2019-03-05T09:51:41.000Z,99181
2019-03-05T09:53:41.000Z,99189
2019-03-05T09:55:41.000Z,99189
2019-03-05T09:57:41.000Z,99188
2019-03-05T09:59:41.000Z,99191
2019-03-05T10:01:41.000Z,99190
2019-03-05T10:03:41.000Z,99194
2019-03-05T10:04:41.000Z,99192
2019-03-05T10:05:41.000Z,99201
2019-03-05T10:07:11.000Z,99196
2019-03-05T10:08:26.000Z,99205
2019-03-05T10:10:41.000Z,99199
2019-03-05T10:12:26.000Z,99206
2019-03-05T10:14:41.000Z,99201
2019-03-05T10:15:41.000Z,99214
2019-03-05T10:17:26.000Z,99202
2019-03-05T10:19:41.000Z,99207
2019-03-05T10:21:41.000Z,99209
2019-03-05T10:23:41.000Z,99213
2019-03-05T10:25:11.000Z,99207
2019-03-05T10:26:41.000Z,99209
2019-03-05T10:27:41.000Z,99224
2019-03-05T10:29:41.000Z,99220
2019-03-05T10:31:26.000Z,99217
2019-03-05T10:32:41.000Z,99214
2019-03-05T11:09:45.000Z,99250
2019-03-05T11:11:01.000Z,99248
2019-03-05T11:12:31.000Z,99251
2019-03-05T11:13:31.000Z,99243
2019-03-05T11:15:16.000Z,99253
2019-03-05T11:16:31.000Z,99251
2019-03-05T11:18:31.000Z,99241
2019-03-05T11:20:31.000Z,99244
2019-03-05T11:21:31.000Z,99248
2019-03-05T11:23:31.000Z,99252
2019-03-05T11:25:16.000Z,99254
2019-03-05T11:26:31.000Z,99266
2019-03-05T11:28:31.000Z,99258
2019-03-05T11:30:31.000Z,99269
2019-03-05T11:32:31.000Z,99267
2019-03-05T11:34:31.000Z,99282
2019-03-05T11:36:01.000Z,99270
2019-03-05T11:37:31.000Z,99261
2019-03-05T11:38:31.000Z,99264
2019-03-05T11:40:16.000Z,99261
2019-03-05T11:42:31.000Z,99268
2019-03-05T11:43:31.000Z,99270
2019-03-05T11:44:31.000Z,99274
2019-03-05T11:46:31.000Z,99264
2019-03-05T11:47:31.000Z,99268
2019-03-05T11:49:16.000Z,99268
2019-03-05T11:50:31.000Z,99273
2019-03-05T11:52:16.000Z,99278
2019-03-05T11:53:31.000Z,99274
2019-03-05T11:54:31.000Z,99274
2019-03-05T11:55:31.000Z,99274
2019-03-05T11:57:31.000Z,99282
2019-03-05T11:59:31.000Z,99277
2019-03-05T12:01:16.000Z,99280
2019-03-05T12:02:16.000Z,99284
2019-03-05T12:04:31.000Z,99291
2019-03-05T12:06:31.000Z,99289
2019-03-05T12:08:31.000Z,99293
2019-03-05T12:10:31.000Z,99289
2019-03-05T12:12:31.000Z,99293
2019-03-05T12:13:31.000Z,99290
2019-03-05T12:15:31.000Z,99293
2019-03-05T12:16:31.000Z,99293
2019-03-05T12:18:31.000Z,99288
2019-03-05T12:20:31.000Z,99288
2019-03-05T12:22:31.000Z,99293
2019-03-05T12:24:16.000Z,99295
2019-03-05T12:26:31.000Z,99299
2019-03-05T12:27:31.000Z,99314
2019-03-05T12:29:31.000Z,99307
2019-03-05T12:30:31.000Z,99302
2019-03-05T12:32:16.000Z,99293
2019-03-05T12:33:16.000Z,99293
2019-03-05T12:34:31.000Z,99296
2019-03-05T12:36:31.000Z,99295
2019-03-05T12:38:31.000Z,99304
2019-03-05T12:40:16.000Z,99309
2019-03-05T12:41:31.000Z,99308
2019-03-05T12:43:31.000Z,99309
2019-03-05T12:44:31.000Z,99306
2019-03-05T12:45:31.000Z,99308
2019-03-05T12:47:31.000Z,99312
2019-03-05T12:48:31.000Z,99301
2019-03-05T12:50:32.000Z,99304
2019-03-05T12:51:32.000Z,99309
2019-03-05T12:53:32.000Z,99318
2019-03-05T12:55:32.000Z,99311
2019-03-05T12:57:16.000Z,99318
2019-03-05T12:58:32.000Z,99313
2019-03-05T13:00:32.000Z,99313
2019-03-05T13:02:32.000Z,99316
2019-03-05T13:04:32.000Z,99311
2019-03-05T13:05:32.000Z,99316
2019-03-05T13:07:17.000Z,99313
2019-03-05T13:09:16.000Z,99319
2019-03-05T13:10:17.000Z,99314
2019-03-05T13:12:32.000Z,99310
2019-03-05T13:14:02.000Z,99311
2019-03-05T13:15:31.000Z,99315
2019-03-05T13:16:32.000Z,99309
2019-03-05T13:18:16.000Z,99316
2019-03-05T13:20:31.000Z,99312
2019-03-05T13:22:16.000Z,99321
2019-03-05T13:24:31.000Z,99310
2019-03-05T13:26:02.000Z,99309
2019-03-05T14:09:10.000Z,99373
2019-03-05T14:10:56.000Z,99366
2019-03-05T14:12:56.000Z,99373
2019-03-05T14:14:56.000Z,99366
2019-03-05T14:15:56.000Z,99369
2019-03-05T14:17:56.000Z,99364
2019-03-05T14:19:41.000Z,99371
2019-03-05T14:21:56.000Z,99400
2019-03-05T14:22:56.000Z,99394
2019-03-05T14:23:56.000Z,99378
2019-03-05T14:25:41.000Z,99383
2019-03-05T14:26:41.000Z,99392
2019-03-05T14:28:56.000Z,99387
2019-03-05T14:30:56.000Z,99386
2019-03-05T14:32:41.000Z,99385
2019-03-05T14:33:41.000Z,99385
2019-03-05T14:35:56.000Z,99382
2019-03-05T14:37:56.000Z,99389
2019-03-05T14:39:41.000Z,99379
2019-03-05T14:40:56.000Z,99385
2019-03-05T14:42:56.000Z,99388
2019-03-05T14:44:26.000Z,99384
2019-03-05T14:45:56.000Z,99387
2019-03-05T14:46:56.000Z,99385
2019-03-05T14:48:56.000Z,99391
2019-03-05T14:50:56.000Z,99396
2019-03-05T14:52:41.000Z,99396
2019-03-05T14:53:56.000Z,99396
2019-03-05T14:55:41.000Z,99399
2019-03-05T14:56:56.000Z,99399
2019-03-05T14:58:56.000Z,99400
2019-03-05T14:59:56.000Z,99392
2019-03-05T15:01:41.000Z,99390
2019-03-05T15:03:56.000Z,99389
2019-03-05T15:05:56.000Z,99394
2019-03-05T15:06:56.000Z,99398
2019-03-05T15:08:56.000Z,99386
2019-03-05T15:10:41.000Z,99405
2019-03-05T15:11:56.000Z,99400
2019-03-05T15:13:56.000Z,99403
2019-03-05T15:15:56.000Z,99407
2019-03-05T15:17:56.000Z,99401
2019-03-05T15:19:41.000Z,99410
2019-03-05T15:20:41.000Z,99406
2019-03-05T15:21:56.000Z,99404
2019-03-05T15:23:56.000Z,99418
2019-03-05T15:25:56.000Z,99412
2019-03-05T15:27:56.000Z,99425
2019-03-05T15:29:56.000Z,99439
2019-03-05T15:31:56.000Z,99424
2019-03-05T15:32:56.000Z,99415
2019-03-05T15:33:56.000Z,99421
2019-03-05T15:35:41.000Z,99433
2019-03-05T15:36:41.000Z,99437
2019-03-05T15:37:56.000Z,99433
2019-03-05T15:39:41.000Z,99440
2019-03-05T15:40:41.000Z,99433
2019-03-05T15:42:41.000Z,99426
2019-03-05T15:44:26.000Z,99429
2019-03-05T15:53:36.000Z,99435
2019-03-05T15:55:36.000Z,99433
2019-03-05T15:56:36.000Z,99429
2019-03-05T15:58:21.000Z,99423
2019-03-05T15:59:36.000Z,99432
2019-03-05T16:01:06.000Z,99420
2019-03-05T16:02:36.000Z,99427
2019-03-05T16:03:36.000Z,99424
2019-03-05T16:05:06.000Z,99420
2019-03-05T16:06:36.000Z,99424
2019-03-05T16:08:21.000Z,99429
2019-03-05T16:09:36.000Z,99432
2019-03-05T16:11:36.000Z,99436
2019-03-05T16:13:36.000Z,99440
2019-03-05T16:15:06.000Z,99443
2019-03-05T16:16:36.000Z,99440
2019-03-05T16:18:21.000Z,99444
2019-03-05T16:19:36.000Z,99445
2019-03-05T16:21:06.000Z,99440
2019-03-05T16:23:36.000Z,99451
2019-03-05T16:25:12.000Z,99456
2019-03-05T16:26:21.000Z,99458
2019-03-05T16:28:06.000Z,99464
2019-03-05T16:29:36.000Z,99465
2019-03-05T16:31:07.000Z,99465
2019-03-05T16:32:21.000Z,99461
2019-03-05T16:34:06.000Z,99466
2019-03-05T16:35:36.000Z,99474
2019-03-05T16:37:06.000Z,99473
2019-03-05T16:38:21.000Z,99473
2019-03-05T16:40:08.000Z,99473
2019-03-05T16:42:36.000Z,99485
2019-03-05T16:43:36.000Z,99483
2019-03-05T16:45:36.000Z,99485
2019-03-05T16:46:36.000Z,99475
2019-03-05T16:48:06.000Z,99475
2019-03-05T16:49:36.000Z,99486
2019-03-05T16:51:36.000Z,99476
2019-03-05T16:53:36.000Z,99485
2019-03-05T16:55:36.000Z,99483
2019-03-05T16:57:21.000Z,99492
2019-03-05T16:58:36.000Z,99494
2019-03-05T17:00:36.000Z,99493
2019-03-05T17:01:36.000Z,99495
2019-03-05T17:03:21.000Z,99497
2019-03-05T17:04:36.000Z,99500
2019-03-05T17:06:21.000Z,99511
2019-03-05T17:08:36.000Z,99506
2019-03-05T17:10:36.000Z,99516
2019-03-05T17:11:36.000Z,99517
2019-03-05T17:13:36.000Z,99511
2019-03-05T17:15:36.000Z,99526
2019-03-05T17:17:36.000Z,99527
2019-03-05T17:19:36.000Z,99526
2019-03-05T17:21:21.000Z,99527
2019-03-05T17:23:36.000Z,99528
2019-03-05T17:24:36.000Z,99533
2019-03-05T17:26:36.000Z,99537
2019-03-05T17:27:36.000Z,99538
2019-03-05T17:29:36.000Z,99537
2019-03-05T17:31:21.000Z,99539
2019-03-05T17:33:36.000Z,99542
2019-03-05T17:35:36.000Z,99543
2019-03-05T17:37:36.000Z,99546
2019-03-05T17:39:36.000Z,99543
2019-03-05T17:41:36.000Z,99547
2019-03-05T17:43:21.000Z,99551
2019-03-05T17:44:36.000Z,99549
2019-03-05T17:46:21.000Z,99553
2019-03-05T17:47:36.000Z,99553
2019-03-05T17:49:22.000Z,99565
2019-03-05T17:50:36.000Z,99554
2019-03-05T17:51:36.000Z,99552
2019-03-05T17:53:36.000Z,99556
2019-03-05T17:55:21.000Z,99559
2019-03-05T17:56:36.000Z,99559
2019-03-05T17:58:36.000Z,99557
2019-03-05T17:59:36.000Z,99560
2019-03-05T18:01:06.000Z,99566
2019-03-05T18:02:36.000Z,99568
2019-03-05T18:04:06.000Z,99572
2019-03-05T18:05:37.000Z,99572
2019-03-05T18:07:37.000Z,99580
2019-03-05T18:09:37.000Z,99588
2019-03-05T18:11:36.000Z,99585
2019-03-05T18:12:37.000Z,99581
2019-03-05T18:14:37.000Z,99589
2019-03-05T18:15:37.000Z,99583
2019-03-05T18:17:37.000Z,99587
2019-03-05T18:19:36.000Z,99588
2019-03-05T18:20:37.000Z,99585
2019-03-05T18:22:06.000Z,99589
2019-03-05T18:23:37.000Z,99587
2019-03-05T18:25:37.000Z,99591
2019-03-05T18:26:37.000Z,99592
2019-03-05T18:28:36.000Z,99597
2019-03-05T18:30:21.000Z,99595
2019-03-05T18:31:37.000Z,99596
2019-03-05T18:33:37.000Z,99591
2019-03-05T18:34:37.000Z,99593
2019-03-05T18:36:07.000Z,99594
2019-03-05T18:37:36.000Z,99597
2019-03-05T18:39:21.000Z,99595
2019-03-05T18:40:37.000Z,99599
2019-03-05T18:42:37.000Z,99599
2019-03-05T18:44:37.000Z,99604
2019-03-05T18:46:36.000Z,99607
2019-03-05T18:48:21.000Z,99610
2019-03-05T18:49:37.000Z,99607
2019-03-05T18:51:37.000Z,99607
2019-03-05T18:52:37.000Z,99612
2019-03-05T18:53:37.000Z,99610
2019-03-05T18:55:36.000Z,99613
2019-03-05T18:57:37.000Z,99616
2019-03-05T18:59:21.000Z,99611
2019-03-05T19:00:37.000Z,99616
2019-03-05T19:02:37.000Z,99619
2019-03-05T19:04:37.000Z,99616
2019-03-05T19:06:37.000Z,99622
2019-03-05T19:08:37.000Z,99625
2019-03-05T19:09:37.000Z,99624
2019-03-05T19:11:37.000Z,99624
2019-03-05T19:13:37.000Z,99625
2019-03-05T19:15:37.000Z,99623
2019-03-05T19:17:37.000Z,99625
2019-03-05T19:19:21.000Z,99620
2019-03-05T19:20:37.000Z,99621
2019-03-05T19:22:37.000Z,99630
2019-03-05T19:23:37.000Z,99630
2019-03-05T19:25:37.000Z,99632
2019-03-05T19:27:22.000Z,99630
2019-03-05T19:29:22.000Z,99632
2019-03-05T19:30:37.000Z,99633
2019-03-05T19:32:37.000Z,99637
2019-03-05T19:33:37.000Z,99640
2019-03-05T19:35:37.000Z,99643
2019-03-05T19:37:21.000Z,99641
2019-03-05T19:39:37.000Z,99648
2019-03-05T19:41:37.000Z,99650
2019-03-05T19:43:06.000Z,99647
2019-03-05T19:44:37.000Z,99645
2019-03-05T19:46:21.000Z,99644
2019-03-05T19:48:06.000Z,99643
2019-03-05T19:49:22.000Z,99648
2019-03-05T19:51:37.000Z,99652
2019-03-05T19:53:37.000Z,99658
2019-03-05T19:55:22.000Z,99661
2019-03-05T19:57:37.000Z,99655
2019-03-05T19:59:21.000Z,99665
2019-03-05T20:00:37.000Z,99660
2019-03-05T20:02:37.000Z,99665
2019-03-05T20:04:07.000Z,99664
2019-03-05T20:05:07.000Z,99660
2019-03-05T20:06:37.000Z,99668
2019-03-05T20:08:21.000Z,99663
2019-03-05T20:09:37.000Z,99668
2019-03-05T20:11:37.000Z,99666
2019-03-05T20:13:21.000Z,99662
2019-03-05T20:15:37.000Z,99662
2019-03-05T20:17:21.000Z,99660
2019-03-05T20:19:37.000Z,99665
2019-03-05T20:20:37.000Z,99663
2019-03-05T20:22:37.000Z,99667
2019-03-05T20:24:37.000Z,99665
2019-03-05T20:26:37.000Z,99663
2019-03-05T20:28:37.000Z,99662
2019-03-05T20:29:37.000Z,99670
2019-03-05T20:30:37.000Z,99664
2019-03-05T20:32:37.000Z,99670
2019-03-05T20:34:21.000Z,99661
2019-03-05T20:35:37.000Z,99667
2019-03-05T20:37:37.000Z,99664
2019-03-05T20:38:37.000Z,99665
2019-03-05T20:40:07.000Z,99667
2019-03-05T20:41:37.000Z,99671
2019-03-05T20:43:37.000Z,99666
2019-03-05T20:45:37.000Z,99671
2019-03-05T20:46:37.000Z,99667
2019-03-05T20:48:37.000Z,99662
2019-03-05T20:49:37.000Z,99660
2019-03-05T20:51:21.000Z,99668
2019-03-05T20:52:37.000Z,99665
2019-03-05T20:54:37.000Z,99656
2019-03-05T20:56:37.000Z,99658
2019-03-05T20:58:37.000Z,99666
2019-03-05T21:00:21.000Z,99667
2019-03-05T21:01:37.000Z,99667
2019-03-05T21:03:21.000Z,99663
2019-03-05T21:04:37.000Z,99663
2019-03-05T21:06:06.000Z,99668
2019-03-05T21:07:37.000Z,99669
2019-03-05T21:09:21.000Z,99671
2019-03-05T21:10:37.000Z,99669
2019-03-05T21:12:37.000Z,99671
2019-03-05T21:14:37.000Z,99675
2019-03-05T21:16:37.000Z,99677
2019-03-05T21:18:37.000Z,99676
2019-03-05T21:20:37.000Z,99684
2019-03-05T21:22:37.000Z,99684
2019-03-05T21:23:37.000Z,99675
2019-03-05T21:25:37.000Z,99677
2019-03-05T21:26:37.000Z,99672
2019-03-05T21:28:22.000Z,99676
2019-03-05T21:29:37.000Z,99678
2019-03-05T21:31:37.000Z,99676
2019-03-05T21:33:22.000Z,99670
2019-03-05T21:35:37.000Z,99678
2019-03-05T21:37:37.000Z,99675
2019-03-05T21:39:37.000Z,99672
2019-03-05T21:41:22.000Z,99673
2019-03-05T21:42:37.000Z,99674
2019-03-05T21:43:37.000Z,99674
2019-03-05T21:45:37.000Z,99682
2019-03-05T21:46:37.000Z,99682
2019-03-05T21:48:37.000Z,99675
2019-03-05T21:50:07.000Z,99681
2019-03-05T21:51:37.000Z,99679
2019-03-05T21:53:22.000Z,99679
2019-03-05T21:54:22.000Z,99687
2019-03-05T21:55:37.000Z,99684
2019-03-05T21:57:37.000Z,99686
2019-03-05T21:58:37.000Z,99685
2019-03-05T22:00:37.000Z,99685
2019-03-05T22:02:22.000Z,99689
2019-03-05T22:04:37.000Z,99690
2019-03-05T22:06:37.000Z,99690
2019-03-05T22:07:37.000Z,99690
2019-03-05T22:09:37.000Z,99692
2019-03-05T22:11:22.000Z,99695
2019-03-05T22:12:37.000Z,99692
2019-03-05T22:14:37.000Z,99698
2019-03-05T22:16:37.000Z,99698
2019-03-05T22:18:36.000Z,99696
2019-03-05T22:20:21.000Z,99695
2019-03-05T22:21:36.000Z,99695
2019-03-05T22:23:36.000Z,99691
2019-03-05T22:25:36.000Z,99689
2019-03-05T22:27:36.000Z,99692
2019-03-05T22:29:21.000Z,99690
2019-03-05T22:30:36.000Z,99689
2019-03-05T22:32:21.000Z,99687
2019-03-05T22:33:36.000Z,99686
2019-03-05T22:35:06.000Z,99686